Time;durP1;ratioP1;P1;durP2;ratioP2;P2;SDS_P1;SDS_P2;PMS_P1;PMS_P2;Temp;Humidity;BMP_temperature;BMP_pressure;BME280_temperature;BME280_humidity;BME280_pressure;Samples;Min_cycle;Max_cycle;Signal;HPM_P1;HPM_P2
2023/11/02 00:00:34;;;;;;;11.65;3.65;;;;;;;5.36;100.00;96077.06;4939062;28;20077;-93
2023/11/02 00:03:04;;;;;;;16.90;3.33;;;;;;;5.31;100.00;96077.75;4954864;28;20064;-93
2023/11/02 00:05:52;;;;;;;13.05;3.10;;;;;;;5.41;100.00;96072.00;4957358;28;20035;-93
2023/11/02 00:08:19;;;;;;;9.50;2.35;;;;;;;5.42;100.00;96075.38;4968557;28;20054;-92
2023/11/02 00:10:45;;;;;;;12.65;3.13;;;;;;;5.43;100.00;96071.78;4940342;28;20492;-93
2023/11/02 00:13:22;;;;;;;13.20;2.17;;;;;;;5.49;100.00;96073.50;4958676;28;20106;-93
2023/11/02 00:15:48;;;;;;;7.50;2.50;;;;;;;5.49;100.00;96070.88;4972812;28;20066;-93
2023/11/02 00:18:14;;;;;;;15.32;3.08;;;;;;;5.51;100.00;96073.28;4942642;28;20101;-94
2023/11/02 00:20:40;;;;;;;7.32;2.50;;;;;;;5.49;100.00;96076.13;4970928;28;20178;-93
2023/11/02 00:23:11;;;;;;;9.25;2.90;;;;;;;5.58;100.00;96072.19;4950844;28;20502;-93
2023/11/02 00:25:58;;;;;;;9.75;2.42;;;;;;;5.59;100.00;96060.69;4956128;28;20042;-93
2023/11/02 00:28:27;;;;;;;10.60;2.22;;;;;;;5.63;100.00;96061.03;4942396;28;20042;-94
2023/11/02 00:30:53;;;;;;;14.52;2.47;;;;;;;5.61;100.00;96057.84;4941004;28;20066;-93
2023/11/02 00:33:20;;;;;;;9.32;1.80;;;;;;;5.69;100.00;96054.09;4955136;28;20049;-93
2023/11/02 00:35:51;;;;;;;5.25;1.65;;;;;;;5.73;100.00;96057.09;4939634;28;20035;-93
2023/11/02 00:38:18;;;;;;;8.13;1.80;;;;;;;5.75;100.00;96050.59;4956304;28;20582;-94
2023/11/02 00:40:45;;;;;;;13.18;2.15;;;;;;;5.76;100.00;96052.22;4938486;28;20041;-93
2023/11/02 00:43:11;;;;;;;8.30;1.75;;;;;;;5.79;100.00;96051.75;4950735;28;20038;-93
2023/11/02 00:45:41;;;;;;;11.55;2.45;;;;;;;5.89;100.00;96042.56;4953706;28;20034;-93
2023/11/02 00:48:21;;;;;;;7.97;1.83;;;;;;;5.92;100.00;96044.75;4944835;28;20524;-93
2023/11/02 00:51:04;;;;;;;7.80;1.95;;;;;;;5.86;100.00;96035.94;4950422;28;20468;-93
2023/11/02 00:53:30;;;;;;;9.57;1.60;;;;;;;5.88;100.00;96051.44;4940010;28;20054;-93
2023/11/02 00:55:56;;;;;;;11.10;1.58;;;;;;;5.86;100.00;96046.41;4950769;28;20038;-93
2023/11/02 00:58:31;;;;;;;8.18;1.58;;;;;;;5.91;100.00;96037.91;4956713;28;20038;-93
2023/11/02 01:01:07;;;;;;;11.32;1.80;;;;;;;5.95;100.00;96036.44;4954720;28;20090;-93
2023/11/02 01:03:36;;;;;;;7.30;1.33;;;;;;;5.89;100.00;96027.63;4979218;28;20117;-93
2023/11/02 01:06:02;;;;;;;12.60;1.67;;;;;;;6.00;100.00;96038.38;4950626;28;20046;-92
2023/11/02 01:08:33;;;;;;;14.40;1.80;;;;;;;6.07;100.00;96033.84;4933637;28;21089;-94
2023/11/02 01:11:01;;;;;;;6.45;1.50;;;;;;;6.02;100.00;96037.13;4970126;28;20487;-93
2023/11/02 01:13:27;;;;;;;9.23;1.58;;;;;;;6.04;100.00;96032.50;4953070;28;20054;-96
2023/11/02 01:16:08;;;;;;;12.15;1.80;;;;;;;6.11;100.00;96034.22;4961789;28;20030;-93
2023/11/02 01:18:34;;;;;;;8.52;1.85;;;;;;;6.04;100.00;96032.50;4956083;28;20030;-93
2023/11/02 01:21:03;;;;;;;4.90;1.00;;;;;;;6.06;100.00;96024.41;4955785;28;20045;-93
2023/11/02 01:23:30;;;;;;;8.48;1.35;;;;;;;6.09;100.00;96023.94;4939707;29;20035;-93
2023/11/02 01:25:56;;;;;;;7.90;1.33;;;;;;;6.09;100.00;96026.56;4953194;28;20038;-94
2023/11/02 01:28:23;;;;;;;10.32;1.17;;;;;;;6.13;100.00;96022.47;4986638;28;20042;-93
2023/11/02 01:31:13;;;;;;;8.98;2.55;;;;;;;6.17;100.00;96021.00;4952954;28;20031;-93
2023/11/02 01:33:39;;;;;;;10.90;1.77;;;;;;;6.10;100.00;96022.13;4941717;29;20035;-94
2023/11/02 01:36:06;;;;;;;7.25;1.00;;;;;;;6.10;100.00;96025.53;4963682;28;20042;-92
2023/11/02 01:38:34;;;;;;;7.47;2.65;;;;;;;6.09;100.00;96023.94;4952422;28;20526;-93
2023/11/02 01:41:15;;;;;;;8.63;1.30;;;;;;;6.14;100.00;96016.22;4965431;28;20035;-94
2023/11/02 01:44:00;;;;;;;5.75;1.05;;;;;;;6.17;100.00;96017.56;4958161;28;20038;-92
2023/11/02 01:46:40;;;;;;;8.65;1.27;;;;;;;6.19;100.00;96018.97;4941604;28;20043;-93
2023/11/02 01:49:14;;;;;;;8.80;1.10;;;;;;;6.20;100.00;96017.94;4975488;28;20035;-94
2023/11/02 01:52:01;;;;;;;8.27;0.82;;;;;;;6.24;100.00;96014.84;4941515;28;20038;-94
2023/11/02 01:54:50;;;;;;;9.27;1.10;;;;;;;6.27;100.00;96007.34;4935814;28;20046;-94
2023/11/02 01:57:49;;;;;;;7.55;0.85;;;;;;;6.31;100.00;96011.09;4952549;28;20070;-93
2023/11/02 02:00:16;;;;;;;5.03;0.95;;;;;;;6.33;100.00;96014.31;4956256;28;20042;-93
2023/11/02 02:02:44;;;;;;;11.00;1.20;;;;;;;6.40;100.00;96016.78;4973969;28;20031;-94
2023/11/02 02:05:30;;;;;;;9.50;1.00;;;;;;;6.41;100.00;96010.53;4986624;28;20034;-94
2023/11/02 02:08:15;;;;;;;11.52;0.90;;;;;;;6.51;100.00;96019.66;4958581;28;20074;-94
2023/11/02 02:10:54;;;;;;;5.88;0.90;;;;;;;6.56;100.00;96019.78;4970410;28;20043;-92
2023/11/02 02:13:40;;;;;;;6.57;0.77;;;;;;;6.54;100.00;96025.25;4956374;28;20023;-94
2023/11/02 02:16:46;;;;;;;8.27;1.20;;;;;;;6.58;100.00;96018.53;4971805;28;20776;-93
2023/11/02 02:19:37;;;;;;;9.13;0.93;;;;;;;6.61;100.00;96019.09;4933735;28;20050;-94
2023/11/02 02:22:07;;;;;;;9.60;1.13;;;;;;;6.60;100.00;96026.16;4936151;29;20039;-93
2023/11/02 02:25:13;;;;;;;7.13;0.88;;;;;;;6.59;100.00;96027.19;4959866;28;20109;-93
2023/11/02 02:27:58;;;;;;;5.70;0.73;;;;;;;6.61;100.00;96022.50;4936868;28;20438;-93
2023/11/02 02:30:40;;;;;;;6.55;1.00;;;;;;;6.61;100.00;96024.34;4942267;28;20039;-94
2023/11/02 02:33:15;;;;;;;13.02;2.35;;;;;;;6.64;100.00;96021.25;4960911;28;20110;-93
2023/11/02 02:36:00;;;;;;;9.93;0.85;;;;;;;6.63;100.00;96019.66;4956657;28;20525;-93
2023/11/02 02:38:39;;;;;;;5.07;1.10;;;;;;;6.66;100.00;96014.75;4964577;28;20062;-93
2023/11/02 02:41:09;;;;;;;8.30;0.95;;;;;;;6.66;100.00;96019.19;4960100;28;20031;-93
2023/11/02 02:43:36;;;;;;;10.02;1.20;;;;;;;6.64;100.00;96021.25;4950943;28;20129;-93
2023/11/02 02:46:06;;;;;;;11.88;1.58;;;;;;;6.70;100.00;96015.88;4938800;28;20063;-94
2023/11/02 02:48:34;;;;;;;8.32;1.50;;;;;;;6.68;100.00;96017.94;4954079;28;20034;-94
2023/11/02 02:51:04;;;;;;;9.25;0.98;;;;;;;6.76;100.00;96021.25;4958305;28;20031;-93
2023/11/02 02:53:32;;;;;;;10.10;1.27;;;;;;;6.76;100.00;96022.06;4976628;28;20417;-93
2023/11/02 02:56:05;;;;;;;4.13;0.68;;;;;;;6.81;100.00;96031.84;4959028;28;20035;-93
2023/11/02 02:58:37;;;;;;;8.60;0.98;;;;;;;6.87;100.00;96027.50;4932767;28;20108;-92
2023/11/02 03:01:04;;;;;;;8.25;1.10;;;;;;;6.87;100.00;96022.25;4936449;28;20082;-93
2023/11/02 03:03:33;;;;;;;6.00;0.90;;;;;;;6.92;100.00;96030.25;4940556;29;20074;-93
2023/11/02 03:05:59;;;;;;;14.45;1.95;;;;;;;6.90;100.00;96027.03;4963880;28;20479;-93
2023/11/02 03:08:27;;;;;;;4.68;0.98;;;;;;;6.90;100.00;96030.47;4941711;28;20106;-93
2023/11/02 03:10:53;;;;;;;11.60;1.30;;;;;;;6.86;100.00;96031.16;4973954;28;20026;-93
2023/11/02 03:13:22;;;;;;;5.57;1.02;;;;;;;6.86;100.00;96042.47;4957890;28;20034;-93
2023/11/02 03:15:51;;;;;;;8.25;1.08;;;;;;;6.87;100.00;96038.81;4940122;28;20035;-93
2023/11/02 03:18:20;;;;;;;9.20;1.10;;;;;;;6.80;100.00;96043.41;4954825;28;20475;-93
2023/11/02 03:20:47;;;;;;;12.80;1.08;;;;;;;6.81;100.00;96037.09;4939986;28;20110;-93
2023/11/02 03:23:29;;;;;;;7.75;1.35;;;;;;;6.84;100.00;96044.53;4969660;28;20062;-92
2023/11/02 03:26:08;;;;;;;11.68;1.65;;;;;;;6.83;100.00;96054.22;4960025;28;20035;-92
2023/11/02 03:29:15;;;;;;;10.70;1.42;;;;;;;6.84;100.00;96041.91;4940102;28;20089;-92
2023/11/02 03:32:06;;;;;;;4.03;0.98;;;;;;;6.79;100.00;96047.84;4933107;28;20043;-93
2023/11/02 03:34:38;;;;;;;4.63;0.60;;;;;;;6.78;100.00;96051.50;4939311;28;20395;-93
2023/11/02 03:37:23;;;;;;;6.40;1.00;;;;;;;6.74;100.00;96052.97;4977807;28;20069;-92
2023/11/02 03:40:24;;;;;;;9.73;1.35;;;;;;;6.69;100.00;96061.53;4942494;29;20032;-93
2023/11/02 03:43:05;;;;;;;11.57;1.10;;;;;;;6.61;100.00;96061.06;4942218;28;20411;-94
2023/11/02 03:46:04;;;;;;;4.07;1.05;;;;;;;6.58;100.00;96055.25;4963520;28;20038;-93
2023/11/02 03:49:00;;;;;;;3.85;0.85;;;;;;;6.47;100.00;96056.03;4945901;28;20476;-93
2023/11/02 03:52:05;;;;;;;7.10;1.25;;;;;;;6.41;100.00;96065.63;4945628;28;20399;-93
2023/11/02 03:54:52;;;;;;;6.88;1.20;;;;;;;6.41;100.00;96068.25;4963396;28;20079;-93
2023/11/02 03:57:31;;;;;;;6.07;1.25;;;;;;;6.44;100.00;96056.50;4976719;28;20369;-93
2023/11/02 04:00:00;;;;;;;6.88;1.33;;;;;;;6.42;100.00;96048.03;4960462;28;20034;-94
2023/11/02 04:02:31;;;;;;;6.50;0.90;;;;;;;6.53;100.00;96049.09;4976744;28;20113;-93
2023/11/02 04:05:15;;;;;;;10.82;2.08;;;;;;;6.55;100.00;96049.66;4963311;28;20035;-93
2023/11/02 04:07:44;;;;;;;7.85;0.90;;;;;;;6.54;100.00;96055.94;4941077;29;20047;-93
2023/11/02 04:10:14;;;;;;;9.90;1.23;;;;;;;6.51;100.00;96057.19;4973586;28;20034;-93
2023/11/02 04:13:03;;;;;;;4.20;0.80;;;;;;;6.52;100.00;96058.78;4949714;28;20051;-93
2023/11/02 04:15:28;;;;;;;8.73;1.42;;;;;;;6.44;100.00;96061.72;4942331;28;20030;-93
2023/11/02 04:17:54;;;;;;;6.38;1.08;;;;;;;6.48;100.00;96065.50;4941913;29;20031;-93
2023/11/02 04:20:20;;;;;;;6.05;1.52;;;;;;;6.50;100.00;96067.91;4959303;28;20503;-93
2023/11/02 04:22:46;;;;;;;10.10;0.90;;;;;;;6.49;100.00;96059.22;4960090;28;20090;-93
2023/11/02 04:25:12;;;;;;;4.13;1.00;;;;;;;6.50;100.00;96068.69;4960129;28;20045;-91
2023/11/02 04:27:38;;;;;;;7.18;0.90;;;;;;;6.49;100.00;96068.91;4942240;28;20510;-93
2023/11/02 04:30:05;;;;;;;9.82;0.90;;;;;;;6.50;100.00;96066.06;4956417;28;20058;-93
2023/11/02 04:32:31;;;;;;;7.28;0.90;;;;;;;6.48;100.00;96068.13;4954943;28;20038;-93
2023/11/02 04:34:58;;;;;;;8.63;1.23;;;;;;;6.49;100.00;96066.28;4944944;28;20097;-92
2023/11/02 04:37:24;;;;;;;5.63;1.20;;;;;;;6.50;100.00;96066.06;4964695;28;20055;-93
2023/11/02 04:39:50;;;;;;;12.30;2.38;;;;;;;6.47;100.00;96073.63;4948654;28;20848;-93
2023/11/02 04:42:17;;;;;;;11.43;1.05;;;;;;;6.47;100.00;96068.38;4945282;29;20090;-93
2023/11/02 04:44:43;;;;;;;5.75;1.80;;;;;;;6.46;100.00;96075.44;4963643;28;20035;-93
2023/11/02 04:47:09;;;;;;;3.67;1.02;;;;;;;6.46;100.00;96080.69;4940014;28;20134;-93
2023/11/02 04:49:35;;;;;;;4.80;0.60;;;;;;;6.47;100.00;96078.88;4954846;28;20838;-93
2023/11/02 04:52:06;;;;;;;8.57;1.13;;;;;;;6.50;100.00;96088.91;4946442;28;20042;-94
2023/11/02 04:54:32;;;;;;;7.22;0.90;;;;;;;6.52;100.00;96087.63;4976095;28;20179;-94
2023/11/02 04:57:00;;;;;;;7.70;1.45;;;;;;;6.56;100.00;96093.25;4970005;28;20033;-93
2023/11/02 04:59:26;;;;;;;6.05;1.10;;;;;;;6.54;100.00;96095.28;4975539;28;20043;-93
2023/11/02 05:01:52;;;;;;;4.95;1.35;;;;;;;6.55;100.00;96089.00;4961792;28;20601;-93
2023/11/02 05:04:18;;;;;;;8.38;1.65;;;;;;;6.54;100.00;96092.66;4959823;28;20042;-93
2023/11/02 05:06:44;;;;;;;6.20;1.10;;;;;;;6.53;100.00;96091.06;4947895;28;20039;-94
2023/11/02 05:09:10;;;;;;;7.78;1.42;;;;;;;6.54;100.00;96092.66;4956245;28;20073;-93
2023/11/02 05:11:35;;;;;;;9.15;1.65;;;;;;;6.54;100.00;96100.53;4937310;29;20061;-93
2023/11/02 05:14:01;;;;;;;9.95;1.17;;;;;;;6.53;100.00;96098.94;4969961;28;20043;-93
2023/11/02 05:16:27;;;;;;;7.97;0.90;;;;;;;6.55;100.00;96096.88;4944005;28;20030;-93
2023/11/02 05:18:53;;;;;;;11.20;1.20;;;;;;;6.52;100.00;96100.75;4946271;28;20092;-93
2023/11/02 05:21:19;;;;;;;14.60;1.23;;;;;;;6.49;100.00;96101.22;4946666;28;20034;-93
2023/11/02 05:23:45;;;;;;;3.75;1.10;;;;;;;6.51;100.00;96107.03;4962294;28;20053;-93
2023/11/02 05:26:13;;;;;;;4.15;1.13;;;;;;;6.49;100.00;96103.03;4923319;28;20094;-93
2023/11/02 05:28:39;;;;;;;4.43;1.00;;;;;;;6.49;100.00;96109.06;4949829;28;20153;-94
2023/11/02 05:31:05;;;;;;;6.95;0.93;;;;;;;6.52;100.00;96106.00;4939678;28;20038;-94
2023/11/02 05:33:31;;;;;;;5.80;1.10;;;;;;;6.52;100.00;96113.88;4974638;28;20392;-93
2023/11/02 05:35:56;;;;;;;4.43;0.93;;;;;;;6.52;100.00;96107.81;4936852;29;20046;-93
2023/11/02 05:38:22;;;;;;;5.63;1.15;;;;;;;6.51;100.00;96114.09;4947006;28;20041;-93
2023/11/02 05:40:48;;;;;;;8.82;1.50;;;;;;;6.52;100.00;96118.31;4973658;28;20472;-93
2023/11/02 05:43:14;;;;;;;4.80;1.20;;;;;;;6.50;100.00;96121.16;4951048;28;20069;-93
2023/11/02 05:45:39;;;;;;;4.43;0.98;;;;;;;6.48;100.00;96122.41;4966384;28;20030;-93
2023/11/02 05:48:06;;;;;;;6.78;1.08;;;;;;;6.48;100.00;96123.22;4958980;28;20046;-94
2023/11/02 05:50:31;;;;;;;5.35;2.05;;;;;;;6.51;100.00;96125.41;4943291;28;20035;-93
2023/11/02 05:52:57;;;;;;;11.23;1.25;;;;;;;6.47;100.00;96124.22;4951898;28;20054;-93
2023/11/02 05:55:23;;;;;;;8.20;1.00;;;;;;;6.41;100.00;96128.56;4965031;28;20039;-93
2023/11/02 05:57:49;;;;;;;4.53;1.10;;;;;;;6.41;100.00;96131.19;4945789;28;20096;-92
2023/11/02 06:00:16;;;;;;;7.45;1.13;;;;;;;6.41;100.00;96127.75;4966192;28;20039;-93
2023/11/02 06:02:42;;;;;;;9.55;1.60;;;;;;;6.33;100.00;96129.69;4973372;28;20490;-93
2023/11/02 06:05:08;;;;;;;4.90;1.00;;;;;;;6.31;100.00;96131.72;4978137;28;20030;-93
2023/11/02 06:07:35;;;;;;;4.00;0.98;;;;;;;6.31;100.00;96133.53;4957758;28;20042;-93
2023/11/02 06:10:04;;;;;;;12.80;1.45;;;;;;;6.31;100.00;96130.91;4941557;28;20047;-92
2023/11/02 06:12:30;;;;;;;5.97;1.15;;;;;;;6.28;100.00;96136.59;4941859;28;20038;-93
2023/11/02 06:14:56;;;;;;;5.32;1.70;;;;;;;6.29;100.00;96135.59;4942726;28;20046;-93
2023/11/02 06:17:23;;;;;;;8.25;1.40;;;;;;;6.31;100.00;96144.03;4957751;28;20109;-93
2023/11/02 06:19:48;;;;;;;5.97;1.30;;;;;;;6.26;100.00;96147.31;4941796;28;20046;-93
2023/11/02 06:22:14;;;;;;;8.95;1.80;;;;;;;6.25;100.00;96140.50;4957680;28;20062;-93
2023/11/02 06:24:42;;;;;;;11.95;2.35;;;;;;;6.21;100.00;96136.72;4947739;28;20101;-92
2023/11/02 06:27:08;;;;;;;8.35;1.58;;;;;;;6.16;100.00;96139.22;4958062;28;20126;-93
2023/11/02 06:29:35;;;;;;;8.63;1.70;;;;;;;6.14;100.00;96142.06;4941887;28;20125;-92
2023/11/02 06:32:01;;;;;;;7.75;1.98;;;;;;;6.12;100.00;96154.56;4942703;28;20039;-92
2023/11/02 06:34:26;;;;;;;7.28;2.92;;;;;;;6.11;100.00;96158.22;4972469;28;20541;-93
2023/11/02 06:36:52;;;;;;;6.05;1.40;;;;;;;6.10;100.00;96155.81;4950918;28;20118;-93
2023/11/02 06:39:20;;;;;;;3.45;1.08;;;;;;;6.09;100.00;96157.63;4955585;28;20043;-92
2023/11/02 06:41:47;;;;;;;6.63;1.50;;;;;;;6.07;100.00;96160.47;4952316;29;20027;-93
2023/11/02 06:44:13;;;;;;;5.90;1.50;;;;;;;6.03;100.00;96167.16;4960697;28;20031;-92
2023/11/02 06:46:38;;;;;;;7.00;1.65;;;;;;;6.06;100.00;96168.56;4964070;28;20081;-92
2023/11/02 06:49:04;;;;;;;9.15;1.35;;;;;;;6.08;100.00;96167.31;4956642;28;20065;-93
2023/11/02 06:51:30;;;;;;;11.82;1.48;;;;;;;6.10;100.00;96166.31;4949544;28;20046;-92
2023/11/02 06:53:56;;;;;;;9.07;1.63;;;;;;;6.13;100.00;96171.91;4956733;28;20046;-92
2023/11/02 06:56:25;;;;;;;6.07;1.70;;;;;;;6.15;100.00;96184.78;4957311;28;20039;-93
2023/11/02 06:58:52;;;;;;;5.57;1.88;;;;;;;6.17;100.00;96188.00;4955711;28;20034;-93
2023/11/02 07:01:18;;;;;;;6.15;2.47;;;;;;;6.12;100.00;96196.53;4958938;28;20391;-92
2023/11/02 07:03:45;;;;;;;6.20;3.40;;;;;;;6.05;100.00;96190.56;4940651;28;20050;-92
2023/11/02 07:06:11;;;;;;;7.80;2.30;;;;;;;6.01;100.00;96190.16;4960128;28;20043;-93
2023/11/02 07:08:38;;;;;;;9.23;2.72;;;;;;;5.99;100.00;96192.19;4940552;28;20042;-93
2023/11/02 07:11:04;;;;;;;8.32;2.00;;;;;;;5.99;100.00;96194.81;4957598;28;20030;-94
2023/11/02 07:13:30;;;;;;;6.75;2.33;;;;;;;5.99;100.00;96194.03;4940430;28;20042;-93
2023/11/02 07:15:57;;;;;;;5.78;2.22;;;;;;;6.00;100.00;96193.81;4940169;28;20054;-93
2023/11/02 07:18:23;;;;;;;4.88;2.20;;;;;;;6.01;100.00;96195.41;4944661;28;20034;-92
2023/11/02 07:20:49;;;;;;;9.20;2.20;;;;;;;6.03;100.00;96187.34;4940330;28;20027;-93
2023/11/02 07:23:15;;;;;;;8.30;2.10;;;;;;;6.10;100.00;96195.94;4959719;28;20039;-92
2023/11/02 07:25:41;;;;;;;8.90;2.05;;;;;;;6.16;100.00;96196.88;4939793;28;20046;-93
2023/11/02 07:28:06;;;;;;;8.27;2.10;;;;;;;6.15;100.00;96197.88;4955891;28;20373;-93
2023/11/02 07:30:32;;;;;;;7.53;2.40;;;;;;;6.20;100.00;96200.66;4947387;28;20484;-92
2023/11/02 07:32:58;;;;;;;4.00;1.70;;;;;;;6.25;100.00;96200.78;4936964;29;20043;-92
2023/11/02 07:35:25;;;;;;;7.45;2.10;;;;;;;6.29;100.00;96209.03;4947976;28;20124;-93
2023/11/02 07:37:51;;;;;;;9.85;1.92;;;;;;;6.27;100.00;96205.81;4953583;28;20057;-93
2023/11/02 07:40:18;;;;;;;9.23;2.20;;;;;;;6.31;100.00;96210.41;4957166;28;20031;-93
2023/11/02 07:42:44;;;;;;;7.10;1.48;;;;;;;6.29;100.00;96217.69;4955868;28;20045;-93
2023/11/02 07:45:10;;;;;;;1.88;0.95;;;;;;;6.25;100.00;96215.72;4946037;29;20035;-93
2023/11/02 07:47:35;;;;;;;6.80;1.65;;;;;;;6.23;100.00;96217.78;4952552;28;20577;-93
2023/11/02 07:50:01;;;;;;;4.25;1.05;;;;;;;6.18;100.00;96224.47;4957672;28;20034;-93
2023/11/02 07:52:27;;;;;;;5.15;1.33;;;;;;;6.18;100.00;96223.69;4936585;29;20055;-93
2023/11/02 07:54:53;;;;;;;6.65;1.40;;;;;;;6.18;100.00;96231.56;4953624;29;20063;-93
2023/11/02 07:57:19;;;;;;;3.55;1.23;;;;;;;6.22;100.00;96230.09;4961378;28;20035;-93
2023/11/02 07:59:45;;;;;;;3.83;1.42;;;;;;;6.24;100.00;96235.91;4942577;28;20042;-93
2023/11/02 08:02:11;;;;;;;10.77;2.45;;;;;;;6.27;100.00;96243.34;4947414;28;20047;-93
2023/11/02 08:04:37;;;;;;;5.30;2.05;;;;;;;6.26;100.00;96244.34;4953360;29;20098;-93
2023/11/02 08:07:03;;;;;;;5.95;1.05;;;;;;;6.22;100.00;96245.00;4933398;29;20039;-93
2023/11/02 08:09:29;;;;;;;5.55;1.20;;;;;;;6.22;100.00;96248.44;4952763;29;20528;-93
2023/11/02 08:11:56;;;;;;;8.93;1.20;;;;;;;6.24;100.00;96250.84;4952435;29;20042;-93
2023/11/02 08:14:22;;;;;;;7.97;1.20;;;;;;;6.21;100.00;96246.84;4938040;29;20562;-93
2023/11/02 08:16:48;;;;;;;6.32;1.15;;;;;;;6.15;100.00;96247.69;4936774;29;20169;-92
2023/11/02 08:19:14;;;;;;;2.65;1.20;;;;;;;6.17;100.00;96261.41;4937667;29;20075;-93
2023/11/02 08:21:42;;;;;;;6.20;1.40;;;;;;;6.12;100.00;96250.75;4947001;29;20153;-93
2023/11/02 08:24:09;;;;;;;3.05;1.00;;;;;;;6.15;100.00;96258.19;4968221;28;20046;-93
2023/11/02 08:26:36;;;;;;;14.57;1.40;;;;;;;6.11;100.00;96259.66;4939872;29;20083;-93
2023/11/02 08:29:02;;;;;;;5.65;1.33;;;;;;;6.12;100.00;96269.13;4971900;28;20043;-91
2023/11/02 08:31:29;;;;;;;6.32;1.13;;;;;;;6.15;100.00;96271.28;4940887;29;20411;-92
2023/11/02 08:33:59;;;;;;;4.82;1.00;;;;;;;6.14;100.00;96267.09;4952302;28;20476;-92
2023/11/02 08:36:27;;;;;;;4.90;1.00;;;;;;;6.12;100.00;96279.59;4934917;29;20075;-92
2023/11/02 08:38:53;;;;;;;4.40;1.00;;;;;;;6.11;100.00;96276.19;4924688;29;20714;-92
2023/11/02 08:41:26;;;;;;;5.28;1.10;;;;;;;6.13;100.00;96271.50;4940706;29;20031;-92
2023/11/02 08:43:52;;;;;;;6.72;0.88;;;;;;;6.07;100.00;96269.78;4954939;28;20436;-92
2023/11/02 08:46:25;;;;;;;6.38;1.45;;;;;;;6.12;100.00;96264.69;4956604;29;20075;-92
2023/11/02 08:48:53;;;;;;;6.00;1.00;;;;;;;6.15;100.00;96268.66;4943083;29;20055;-92
2023/11/02 08:51:22;;;;;;;4.53;1.00;;;;;;;6.17;100.00;96271.88;4940003;29;20044;-91
2023/11/02 08:53:48;;;;;;;6.78;1.33;;;;;;;6.12;100.00;96269.13;4964482;28;20057;-92
2023/11/02 08:56:14;;;;;;;3.33;0.90;;;;;;;6.11;100.00;96275.38;4959600;28;20034;-93
2023/11/02 08:58:44;;;;;;;3.22;0.77;;;;;;;6.14;100.00;96277.56;4940625;28;20496;-91
2023/11/02 09:01:11;;;;;;;6.85;1.23;;;;;;;6.14;100.00;96277.56;4961669;28;20071;-92
2023/11/02 09:03:38;;;;;;;5.93;0.77;;;;;;;6.12;100.00;96280.41;4970442;28;20031;-94
2023/11/02 09:06:08;;;;;;;5.60;1.20;;;;;;;6.12;100.00;96275.16;4957777;28;20110;-94
2023/11/02 09:08:35;;;;;;;7.68;1.08;;;;;;;6.13;100.00;96289.88;4928770;28;20038;-92
2023/11/02 09:11:02;;;;;;;5.30;1.10;;;;;;;6.10;100.00;96289.53;4943232;28;20035;-92
2023/11/02 09:13:29;;;;;;;7.97;1.10;;;;;;;6.11;100.00;96293.75;4956222;28;20959;-91
2023/11/02 09:15:55;;;;;;;6.03;1.08;;;;;;;6.10;100.00;96289.53;4949872;28;20042;-91
2023/11/02 09:18:22;;;;;;;4.97;1.17;;;;;;;6.16;100.00;96301.75;4939596;28;20045;-92
2023/11/02 09:20:49;;;;;;;5.78;1.08;;;;;;;6.22;100.00;96303.50;4956076;28;20033;-93
2023/11/02 09:23:16;;;;;;;3.85;1.00;;;;;;;6.33;100.00;96289.66;4943280;29;20035;-93
2023/11/02 09:25:43;;;;;;;6.03;1.10;;;;;;;6.42;100.00;96299.81;4951987;28;20109;-92
2023/11/02 09:28:09;;;;;;;4.30;1.05;;;;;;;6.53;100.00;96306.19;4955632;28;20035;-92
2023/11/02 09:30:35;;;;;;;10.43;0.90;;;;;;;6.65;100.00;96300.97;4983909;28;20523;-92
2023/11/02 09:33:00;;;;;;;4.57;0.82;;;;;;;6.76;100.00;96302.03;4958900;28;20042;-93
2023/11/02 09:35:27;;;;;;;5.80;0.90;;;;;;;6.85;100.00;96310.41;4953700;28;20046;-92
2023/11/02 09:37:53;;;;;;;6.32;1.05;;;;;;;6.91;100.00;96307.69;4946695;28;20050;-92
2023/11/02 09:40:19;;;;;;;3.42;1.20;;;;;;;6.97;100.00;96310.44;4972226;28;20027;-92
2023/11/02 09:42:45;;;;;;;5.40;1.25;;;;;;;7.00;100.00;96315.25;4922812;28;20034;-92
2023/11/02 09:45:12;;;;;;;7.13;1.23;;;;;;;7.11;100.00;96314.47;4940459;29;20043;-92
2023/11/02 09:47:38;;;;;;;7.05;0.95;;;;;;;7.20;100.00;96317.56;4965234;28;20105;-92
2023/11/02 09:50:07;;;;;;;6.50;1.20;;;;;;;7.34;100.00;96322.63;4946600;29;20106;-92
2023/11/02 09:52:34;;;;;;;5.70;1.33;;;;;;;7.47;100.00;96322.41;4957394;28;20105;-92
2023/11/02 09:55:00;;;;;;;11.00;1.15;;;;;;;7.63;100.00;96323.59;4974281;28;20117;-92
2023/11/02 09:57:26;;;;;;;4.32;0.98;;;;;;;7.77;100.00;96323.38;4951168;28;20097;-91
2023/11/02 09:59:52;;;;;;;3.83;0.77;;;;;;;7.87;100.00;96334.09;4934098;29;20043;-92
2023/11/02 10:02:19;;;;;;;4.70;0.88;;;;;;;7.94;100.00;96336.63;4972772;28;20046;-92
2023/11/02 10:04:45;;;;;;;6.18;1.25;;;;;;;8.03;100.00;96340.50;4954069;28;20037;-92
2023/11/02 10:07:11;;;;;;;7.32;1.20;;;;;;;8.10;100.00;96342.22;4951317;28;20042;-93
2023/11/02 10:09:38;;;;;;;5.47;0.93;;;;;;;8.14;100.00;96345.97;4941202;28;20109;-92
2023/11/02 10:12:04;;;;;;;2.72;0.90;;;;;;;8.22;100.00;96344.84;4940915;28;20422;-93
2023/11/02 10:14:32;;;;;;;5.22;1.13;;;;;;;8.25;100.00;96347.78;4973472;28;20408;-93
2023/11/02 10:17:02;;;;;;;9.75;0.95;;;;;;;8.38;100.00;96345.94;4956292;28;20113;-92
2023/11/02 10:19:29;;;;;;;7.03;0.95;;;;;;;8.38;100.00;96338.84;4936677;28;20035;-93
2023/11/02 10:21:55;;;;;;;8.15;1.00;;;;;;;8.46;100.00;96347.44;4940596;28;20046;-93
2023/11/02 10:24:32;;;;;;;7.88;2.03;;;;;;;8.59;100.00;96343.75;4973282;28;20046;-93
2023/11/02 10:27:02;;;;;;;11.32;1.33;;;;;;;8.61;100.00;96352.22;4933765;28;20069;-93
2023/11/02 10:29:32;;;;;;;6.45;1.23;;;;;;;8.73;100.00;96352.19;4954580;28;20039;-92
2023/11/02 10:31:58;;;;;;;7.60;1.42;;;;;;;8.69;100.00;96357.91;4971845;28;20339;-91
2023/11/02 10:34:27;;;;;;;12.18;1.50;;;;;;;8.72;100.00;96355.84;4954851;28;20049;-94
2023/11/02 10:36:57;;;;;;;11.50;1.75;;;;;;;8.71;100.00;96349.81;4951886;28;20117;-92
2023/11/02 10:39:25;;;;;;;13.00;1.25;;;;;;;8.79;100.00;96357.31;4956039;28;20197;-93
2023/11/02 10:41:58;;;;;;;7.78;1.60;;;;;;;8.93;100.00;96360.47;4937612;29;20440;-93
2023/11/02 10:44:35;;;;;;;8.30;1.23;;;;;;;8.95;100.00;96362.84;4935746;28;20046;-93
2023/11/02 10:47:03;;;;;;;14.23;1.58;;;;;;;9.00;100.00;96359.53;4954950;28;20088;-92
2023/11/02 10:49:36;;;;;;;12.75;1.95;;;;;;;9.10;100.00;96365.00;4942034;28;20097;-93
2023/11/02 10:52:11;;;;;;;9.55;1.55;;;;;;;9.20;100.00;96351.19;4940409;28;20697;-93
2023/11/02 10:54:58;;;;;;;8.82;1.50;;;;;;;9.31;100.00;96367.97;4971170;28;20404;-93
2023/11/02 10:57:28;;;;;;;8.43;1.85;;;;;;;9.43;100.00;96366.06;4955614;28;20047;-93
2023/11/02 10:59:59;;;;;;;11.32;1.30;;;;;;;9.56;100.00;96366.81;4957964;28;20117;-91
2023/11/02 11:02:25;;;;;;;6.18;1.27;;;;;;;9.65;100.00;96375.13;4943325;28;20038;-92
2023/11/02 11:04:52;;;;;;;11.20;1.33;;;;;;;9.70;100.00;96371.78;4953543;28;20074;-92
2023/11/02 11:07:21;;;;;;;7.30;1.70;;;;;;;9.80;100.00;96364.81;4938652;28;20059;-92
2023/11/02 11:09:50;;;;;;;11.65;1.73;;;;;;;9.87;100.00;96369.94;4939397;28;20562;-92
2023/11/02 11:12:17;;;;;;;14.57;1.88;;;;;;;10.02;100.00;96376.47;4936392;28;20035;-95
2023/11/02 11:14:48;;;;;;;7.72;1.38;;;;;;;10.13;100.00;96369.50;4971542;28;20049;-90
2023/11/02 11:17:14;;;;;;;9.82;1.27;;;;;;;10.24;100.00;96387.06;4940619;28;20050;-95
2023/11/02 11:19:41;;;;;;;9.60;1.40;;;;;;;10.30;100.00;96380.81;4952748;28;20031;-95
2023/11/02 11:22:14;;;;;;;8.93;1.30;;;;;;;10.40;100.00;96384.66;4971274;28;20090;-92
2023/11/02 11:24:40;;;;;;;12.82;2.10;;;;;;;10.47;100.00;96387.94;4964224;28;20547;-93
2023/11/02 11:27:07;;;;;;;19.02;2.20;;;;;;;10.53;100.00;96394.88;4952958;28;20027;-94
2023/11/02 11:29:37;;;;;;;8.90;1.25;;;;;;;10.58;100.00;96402.06;4946219;28;20373;-91
2023/11/02 11:32:04;;;;;;;14.32;2.55;;;;;;;10.60;100.00;96404.44;4958702;28;20043;-94
2023/11/02 11:35:09;;;;;;;14.13;1.50;;;;;;;10.59;100.00;96389.66;4953772;28;20031;-94
2023/11/02 11:40:20;;;;;;;13.27;2.00;;;;;;;10.33;100.00;96397.22;4969934;28;21230;-93
2023/11/02 11:42:52;;;;;;;11.95;2.50;;;;;;;10.35;100.00;96392.50;4939553;28;20039;-93
2023/11/02 11:45:32;;;;;;;14.77;1.95;;;;;;;10.39;100.00;96393.59;4937864;28;20056;-96
2023/11/02 11:48:03;;;;;;;14.98;2.67;;;;;;;10.40;100.00;96393.34;4960921;28;20035;-94